Time;durP1;ratioP1;P1;durP2;ratioP2;P2;SDS_P1;SDS_P2;PMS_P1;PMS_P2;Temp;Humidity;BMP_temperature;BMP_pressure;BME280_temperature;BME280_humidity;BME280_pressure;Samples;Min_cycle;Max_cycle;Signal;HPM_P1;HPM_P2
2023/06/26 00:00:06;;;;;;;4.10;2.30;;;;;;;20.69;100.00;98847.06;5029838;28;20231;-77
2023/06/26 00:02:33;;;;;;;3.83;2.40;;;;;;;20.67;100.00;98847.22;5029797;28;20213;-77
2023/06/26 00:05:02;;;;;;;4.37;2.50;;;;;;;20.64;100.00;98852.78;5029717;28;20276;-77
2023/06/26 00:07:29;;;;;;;4.23;2.50;;;;;;;20.62;100.00;98864.34;5029293;28;20246;-77
2023/06/26 00:09:58;;;;;;;3.73;2.50;;;;;;;20.62;100.00;98853.94;5029849;28;20262;-77
2023/06/26 00:12:25;;;;;;;3.87;2.23;;;;;;;20.62;100.00;98846.16;5029361;28;20238;-77
2023/06/26 00:14:52;;;;;;;4.53;2.40;;;;;;;20.66;100.00;98847.41;5029661;28;20224;-77
2023/06/26 00:17:19;;;;;;;6.47;2.67;;;;;;;20.63;100.00;98840.00;5029828;28;20231;-77
2023/06/26 00:19:46;;;;;;;4.87;2.97;;;;;;;20.63;100.00;98840.00;5029850;28;20203;-77
2023/06/26 00:22:13;;;;;;;4.97;2.77;;;;;;;20.60;100.00;98838.56;5029439;28;20226;-77
2023/06/26 00:24:40;;;;;;;4.83;2.27;;;;;;;20.56;100.00;98834.69;5029542;28;20201;-77
2023/06/26 00:27:08;;;;;;;4.37;2.33;;;;;;;20.52;100.00;98836.84;5029401;28;20222;-77
2023/06/26 00:29:36;;;;;;;6.13;2.67;;;;;;;20.47;100.00;98844.34;5029536;28;20211;-77
2023/06/26 00:32:03;;;;;;;14.90;2.83;;;;;;;20.50;100.00;98836.19;5029254;28;20718;-77
2023/06/26 00:34:29;;;;;;;6.17;2.80;;;;;;;20.53;100.00;98830.66;5029388;28;20591;-77
2023/06/26 00:36:56;;;;;;;4.63;2.60;;;;;;;20.52;100.00;98843.81;5029825;28;20227;-77
2023/06/26 00:39:25;;;;;;;3.43;2.50;;;;;;;20.52;100.00;98831.66;5029327;28;20209;-77
2023/06/26 00:41:54;;;;;;;4.37;2.53;;;;;;;20.53;100.00;98841.03;5029229;28;20671;-77
2023/06/26 00:44:23;;;;;;;3.40;2.40;;;;;;;20.48;100.00;98838.19;5029394;28;20226;-77
2023/06/26 00:46:50;;;;;;;3.47;2.23;;;;;;;20.53;100.00;98841.03;5029602;28;20225;-77
2023/06/26 00:49:17;;;;;;;3.93;2.37;;;;;;;20.56;100.00;98838.09;5029379;28;20205;-77
2023/06/26 00:51:44;;;;;;;3.43;2.20;;;;;;;20.62;100.00;98835.75;5029378;28;20242;-77
2023/06/26 00:54:12;;;;;;;3.60;2.30;;;;;;;20.63;100.00;98847.78;5029442;28;20208;-78
2023/06/26 00:56:39;;;;;;;3.07;2.20;;;;;;;20.64;100.00;98839.00;5029754;28;20303;-78
2023/06/26 00:59:06;;;;;;;3.10;2.30;;;;;;;20.70;100.00;98843.44;5032945;28;20197;-77
2023/06/26 01:01:34;;;;;;;2.93;2.03;;;;;;;20.63;100.00;98840.78;5033157;28;20237;-77
2023/06/26 01:04:01;;;;;;;3.50;2.23;;;;;;;20.59;100.00;98836.91;5033057;28;20585;-77
2023/06/26 01:06:35;;;;;;;5.97;2.30;;;;;;;20.55;100.00;98836.50;5032766;28;20257;-77
2023/06/26 01:09:02;;;;;;;4.07;2.30;;;;;;;20.56;100.00;98835.50;5032540;28;20203;-76
2023/06/26 01:11:29;;;;;;;3.00;2.13;;;;;;;20.62;100.00;98827.97;5032234;28;20225;-76
2023/06/26 01:14:00;;;;;;;3.27;2.00;;;;;;;20.62;100.00;98835.75;5032481;28;20209;-75
2023/06/26 01:16:30;;;;;;;5.63;2.47;;;;;;;20.64;100.00;98833.78;5032705;28;20233;-76
2023/06/26 01:18:58;;;;;;;4.23;2.47;;;;;;;20.63;100.00;98832.19;5032380;28;20203;-76
2023/06/26 01:21:32;;;;;;;4.43;2.43;;;;;;;20.65;100.00;98825.00;5032180;28;20238;-76
2023/06/26 01:24:06;;;;;;;3.97;2.50;;;;;;;20.63;100.00;98825.19;5032319;28;20206;-76
2023/06/26 01:26:36;;;;;;;2.87;1.93;;;;;;;20.66;100.00;98824.84;5032350;28;20221;-76
2023/06/26 01:29:05;;;;;;;5.53;2.53;;;;;;;20.66;100.00;98827.44;5032273;28;20264;-76
2023/06/26 01:31:32;;;;;;;3.03;2.17;;;;;;;20.58;100.00;98820.53;5032025;28;20268;-76
2023/06/26 01:34:00;;;;;;;3.93;2.27;;;;;;;20.61;100.00;98823.78;5032173;28;20201;-76
2023/06/26 01:36:28;;;;;;;3.13;2.13;;;;;;;20.65;100.00;98825.00;5032378;28;20236;-76
2023/06/26 01:38:55;;;;;;;4.17;2.30;;;;;;;20.63;100.00;98827.00;5032328;28;20578;-76
2023/06/26 01:41:22;;;;;;;3.33;2.10;;;;;;;20.62;100.00;98825.38;5032287;28;20245;-77
2023/06/26 01:44:04;;;;;;;4.80;2.63;;;;;;;20.64;100.00;98823.41;5032106;28;20206;-76
2023/06/26 01:46:40;;;;;;;3.97;2.30;;;;;;;20.67;100.00;98828.22;5031702;28;20237;-77
2023/06/26 01:49:12;;;;;;;4.90;2.50;;;;;;;20.65;100.00;98825.00;5031859;28;20736;-77
2023/06/26 01:51:44;;;;;;;5.23;2.73;;;;;;;20.58;100.00;98820.53;5031756;28;20723;-77
2023/06/26 01:54:18;;;;;;;3.87;2.47;;;;;;;20.62;100.00;98827.97;5031819;28;20199;-77
2023/06/26 01:56:46;;;;;;;4.53;2.83;;;;;;;20.60;100.00;98822.97;5031552;28;20223;-77
2023/06/26 01:59:15;;;;;;;6.37;2.57;;;;;;;20.58;100.00;98828.34;5031739;28;20202;-77
2023/06/26 02:01:42;;;;;;;8.23;3.07;;;;;;;20.54;100.00;98823.69;5031405;28;20254;-77
2023/06/26 02:04:09;;;;;;;5.33;2.37;;;;;;;20.52;100.00;98821.28;5031592;28;20202;-77
2023/06/26 02:06:37;;;;;;;5.90;3.20;;;;;;;20.48;100.00;98830.38;5031921;28;20625;-77
2023/06/26 02:09:03;;;;;;;3.50;2.30;;;;;;;20.45;100.00;98815.16;5031420;28;20203;-77
2023/06/26 02:11:30;;;;;;;6.60;2.50;;;;;;;20.47;100.00;98831.34;5031794;28;20230;-77
2023/06/26 02:13:57;;;;;;;6.87;2.53;;;;;;;20.48;100.00;98820.00;5031272;28;20721;-77
2023/06/26 02:16:25;;;;;;;5.10;2.33;;;;;;;20.50;100.00;98818.00;5031283;28;20234;-77
2023/06/26 02:18:52;;;;;;;7.57;2.87;;;;;;;20.53;100.00;98822.06;5031507;28;20674;-77
2023/06/26 02:21:19;;;;;;;4.70;2.60;;;;;;;20.56;100.00;98821.69;5031344;28;20226;-77
2023/06/26 02:23:46;;;;;;;5.23;2.40;;;;;;;20.60;100.00;98822.16;5031138;28;20211;-77
2023/06/26 02:26:13;;;;;;;4.53;2.30;;;;;;;20.60;100.00;98811.78;5030998;28;20218;-77
2023/06/26 02:28:40;;;;;;;5.97;2.50;;;;;;;20.60;100.00;98822.97;5031805;28;20198;-77
2023/06/26 02:31:06;;;;;;;6.50;2.73;;;;;;;20.60;100.00;98816.97;5032535;28;20238;-78
2023/06/26 02:33:35;;;;;;;7.13;2.70;;;;;;;20.60;100.00;98811.78;5032425;28;20271;-77
2023/06/26 02:36:02;;;;;;;7.67;2.87;;;;;;;20.57;100.00;98813.75;5030901;28;20231;-77
2023/06/26 02:38:29;;;;;;;5.90;2.83;;;;;;;20.60;100.00;98816.97;5030810;28;20204;-77
2023/06/26 02:40:55;;;;;;;4.50;2.77;;;;;;;20.63;100.00;98819.22;5031004;28;20288;-77
2023/06/26 02:43:22;;;;;;;9.90;3.30;;;;;;;20.61;100.00;98813.38;5031033;28;20292;-77
2023/06/26 02:45:49;;;;;;;4.10;2.40;;;;;;;20.61;100.00;98818.56;5030772;28;20664;-77
2023/06/26 02:48:16;;;;;;;3.50;2.30;;;;;;;20.64;100.00;98813.81;5030828;28;20205;-77
2023/06/26 02:50:46;;;;;;;4.20;2.47;;;;;;;20.66;100.00;98811.03;5030674;28;20206;-77
2023/06/26 02:53:13;;;;;;;3.37;2.40;;;;;;;20.66;100.00;98816.25;5030748;28;20234;-77
2023/06/26 02:55:40;;;;;;;4.67;2.87;;;;;;;20.60;100.00;98812.56;5030406;28;20201;-77
2023/06/26 02:58:07;;;;;;;4.60;2.60;;;;;;;20.63;100.00;98816.59;5030993;28;20226;-77
2023/06/26 03:00:33;;;;;;;3.43;2.17;;;;;;;20.63;100.00;98814.81;5030786;28;20203;-77
2023/06/26 03:03:00;;;;;;;5.33;2.90;;;;;;;20.64;100.00;98813.00;5030513;28;20225;-77
2023/06/26 03:05:27;;;;;;;4.87;2.57;;;;;;;20.65;100.00;98815.41;5030764;28;20265;-77
2023/06/26 03:07:55;;;;;;;4.50;2.63;;;;;;;20.68;100.00;98820.28;5030228;28;20229;-77
2023/06/26 03:10:22;;;;;;;4.20;2.57;;;;;;;20.69;100.00;98823.66;5030536;28;20298;-77
2023/06/26 03:12:50;;;;;;;3.87;2.57;;;;;;;20.71;100.00;98824.28;5030385;28;20333;-78
2023/06/26 03:15:19;;;;;;;6.83;2.73;;;;;;;20.72;100.00;98815.50;5030754;28;20212;-78
2023/06/26 03:17:46;;;;;;;4.40;2.90;;;;;;;20.75;100.00;98822.94;5030927;28;20223;-77
2023/06/26 03:20:12;;;;;;;7.17;2.70;;;;;;;20.72;100.00;98813.72;5030893;28;20205;-77
2023/06/26 03:22:39;;;;;;;5.43;2.80;;;;;;;20.76;100.00;98821.94;5031518;28;20225;-78
2023/06/26 03:25:08;;;;;;;4.77;2.93;;;;;;;20.80;100.00;98818.81;5031298;28;20624;-78
2023/06/26 03:27:35;;;;;;;6.57;3.07;;;;;;;20.80;100.00;98815.41;5032103;28;20224;-78
2023/06/26 03:30:02;;;;;;;5.03;2.87;;;;;;;20.79;100.00;98811.19;5032344;28;20213;-78
2023/06/26 03:32:29;;;;;;;4.80;2.80;;;;;;;20.82;100.00;98805.63;5033249;28;20252;-78
2023/06/26 03:34:56;;;;;;;6.00;3.07;;;;;;;20.85;100.00;98810.44;5033163;28;20198;-78
2023/06/26 03:37:23;;;;;;;7.37;3.60;;;;;;;20.85;100.00;98802.66;5032968;28;20595;-78
2023/06/26 03:39:50;;;;;;;5.07;2.83;;;;;;;20.84;100.00;98808.84;5031963;28;20207;-78
2023/06/26 03:42:18;;;;;;;6.80;3.03;;;;;;;20.90;100.00;98808.09;5031659;28;20220;-78
2023/06/26 03:44:45;;;;;;;5.57;3.30;;;;;;;20.92;100.00;98800.94;5032826;28;20210;-78
2023/06/26 03:47:11;;;;;;;6.27;3.80;;;;;;;20.98;100.00;98810.59;5033519;28;20263;-78
2023/06/26 03:49:38;;;;;;;6.93;3.40;;;;;;;21.02;100.00;98806.63;5032660;28;20214;-78
2023/06/26 03:52:06;;;;;;;7.80;3.60;;;;;;;21.09;100.00;98811.09;5032527;28;20220;-78
2023/06/26 03:54:33;;;;;;;8.00;3.50;;;;;;;21.10;100.00;98810.91;5033524;28;20210;-78
2023/06/26 03:57:00;;;;;;;5.40;3.80;;;;;;;21.15;100.00;98811.16;5033688;28;20226;-78
2023/06/26 03:59:29;;;;;;;8.17;3.97;;;;;;;21.16;100.00;98812.75;5033317;28;20203;-78
2023/06/26 04:01:56;;;;;;;6.43;3.50;;;;;;;21.18;100.00;98816.00;5034815;28;20234;-77
2023/06/26 04:04:23;;;;;;;5.80;3.60;;;;;;;21.17;100.00;98823.97;5035990;28;20208;-78
2023/06/26 04:06:50;;;;;;;6.35;3.38;;;;;;;21.16;100.00;98824.97;5035711;28;20219;-78
2023/06/26 04:09:18;;;;;;;8.20;3.97;;;;;;;21.16;100.00;98824.97;5038201;28;20221;-78
2023/06/26 04:11:46;;;;;;;8.63;4.73;;;;;;;21.20;100.00;98826.19;5035387;28;20307;-78
2023/06/26 04:14:12;;;;;;;8.50;4.27;;;;;;;21.19;100.00;98822.78;5036472;28;20245;-78
2023/06/26 04:16:41;;;;;;;7.60;3.90;;;;;;;21.26;100.00;98828.03;5037950;28;20226;-78
2023/06/26 04:19:09;;;;;;;8.20;4.03;;;;;;;21.22;100.00;98821.63;5035860;28;20199;-78
2023/06/26 04:21:36;;;;;;;7.17;4.27;;;;;;;21.23;100.00;98831.84;5037162;28;20223;-78
2023/06/26 04:24:03;;;;;;;7.77;4.60;;;;;;;21.31;100.00;98833.50;5037580;28;20218;-78
2023/06/26 04:26:30;;;;;;;8.43;4.27;;;;;;;21.35;100.00;98839.97;5037661;28;20224;-77
2023/06/26 04:28:57;;;;;;;8.13;4.10;;;;;;;21.37;100.00;98839.78;5030122;28;20200;-77
2023/06/26 04:31:24;;;;;;;12.57;4.30;;;;;;;21.39;100.00;98836.00;5031618;28;20220;-77
2023/06/26 04:33:54;;;;;;;7.63;4.57;;;;;;;21.34;100.00;98845.31;5033352;28;20228;-77
2023/06/26 04:36:21;;;;;;;8.52;4.68;;;;;;;21.35;100.00;98841.72;5033143;28;20235;-77
2023/06/26 04:38:49;;;;;;;6.80;4.03;;;;;;;21.38;100.00;98841.38;5033279;28;20228;-77
2023/06/26 04:41:16;;;;;;;8.73;4.20;;;;;;;21.38;100.00;98844.81;5033036;28;20220;-77
2023/06/26 04:43:42;;;;;;;10.17;4.57;;;;;;;21.39;100.00;98843.81;5033283;28;20200;-77
2023/06/26 04:46:09;;;;;;;8.27;4.17;;;;;;;21.41;100.00;98847.03;5033090;28;20231;-78
2023/06/26 04:48:36;;;;;;;6.90;4.27;;;;;;;21.44;100.00;98851.88;5033183;28;20207;-77
2023/06/26 04:51:05;;;;;;;10.57;4.80;;;;;;;21.45;100.00;98843.06;5033044;28;20234;-77
2023/06/26 04:53:32;;;;;;;7.95;3.88;;;;;;;21.54;100.00;98848.16;5033454;28;20236;-77
2023/06/26 04:55:59;;;;;;;9.67;4.20;;;;;;;21.61;100.00;98851.59;5033306;28;20243;-77
2023/06/26 04:58:26;;;;;;;7.43;3.73;;;;;;;21.65;100.00;98842.44;5033260;28;20218;-77
2023/06/26 05:00:53;;;;;;;6.72;3.70;;;;;;;21.67;100.00;98845.63;5033010;28;20644;-77
2023/06/26 05:03:20;;;;;;;9.82;4.43;;;;;;;21.68;100.00;98852.47;5032703;28;20207;-77
2023/06/26 05:05:47;;;;;;;8.07;4.63;;;;;;;21.69;100.00;98851.47;5032772;28;20612;-77
2023/06/26 05:08:16;;;;;;;7.13;3.92;;;;;;;21.75;100.00;98858.50;5033258;28;20204;-77
2023/06/26 05:10:43;;;;;;;6.63;4.18;;;;;;;21.77;100.00;98851.34;5032588;28;20447;-77
2023/06/26 05:13:10;;;;;;;8.03;4.13;;;;;;;21.78;100.00;98852.94;5032576;28;20489;-77
2023/06/26 05:15:37;;;;;;;7.75;4.40;;;;;;;21.87;100.00;98861.41;5033127;28;20215;-78
2023/06/26 05:18:05;;;;;;;7.20;4.03;;;;;;;21.94;100.00;98862.28;5035158;28;20208;-78
2023/06/26 05:20:32;;;;;;;7.80;4.15;;;;;;;21.99;100.00;98864.28;5034989;28;20200;-77
2023/06/26 05:22:59;;;;;;;6.90;4.20;;;;;;;22.07;100.00;98871.97;5035598;28;20227;-78
2023/06/26 05:25:29;;;;;;;6.35;4.03;;;;;;;21.95;100.00;98868.28;5036312;28;20204;-78
2023/06/26 05:27:56;;;;;;;6.82;4.20;;;;;;;21.98;100.00;98868.69;5035653;28;20299;-78
2023/06/26 05:30:25;;;;;;;9.48;3.92;;;;;;;22.09;100.00;98870.78;5033410;28;20200;-78
2023/06/26 05:32:53;;;;;;;7.03;4.13;;;;;;;22.09;100.00;98869.97;5033322;28;20227;-77
2023/06/26 05:35:21;;;;;;;8.27;4.47;;;;;;;22.13;100.00;98877.22;5033996;28;20672;-78
2023/06/26 05:37:50;;;;;;;6.30;4.13;;;;;;;22.19;100.00;98875.66;5035623;28;20285;-78
2023/06/26 05:40:18;;;;;;;5.93;3.85;;;;;;;22.22;100.00;98870.06;5036113;28;20279;-77
2023/06/26 05:42:48;;;;;;;10.93;4.18;;;;;;;22.30;100.00;98876.94;5034840;28;20224;-78
2023/06/26 05:45:15;;;;;;;8.13;4.68;;;;;;;22.29;100.00;98876.16;5036605;28;20208;-78
2023/06/26 05:47:42;;;;;;;8.57;4.55;;;;;;;22.33;100.00;98881.78;5034163;28;20612;-78
2023/06/26 05:50:11;;;;;;;8.27;3.95;;;;;;;22.32;100.00;98875.75;5033919;28;20196;-77
2023/06/26 05:52:39;;;;;;;6.88;4.05;;;;;;;22.23;100.00;98879.53;5035235;28;20222;-78
2023/06/26 05:55:07;;;;;;;7.03;4.10;;;;;;;22.27;100.00;98872.91;5034542;28;20322;-77
2023/06/26 05:57:38;;;;;;;6.22;4.13;;;;;;;22.26;100.00;98886.94;5032422;28;20279;-77
2023/06/26 06:00:10;;;;;;;5.70;3.83;;;;;;;22.32;100.00;98886.19;5034382;28;20204;-77
2023/06/26 06:02:37;;;;;;;8.20;3.95;;;;;;;22.42;100.00;98885.03;5032571;28;20771;-77
2023/06/26 06:05:05;;;;;;;9.40;4.22;;;;;;;22.44;100.00;98883.03;5032130;28;20286;-77
2023/06/26 06:07:33;;;;;;;6.07;3.88;;;;;;;22.37;100.00;98883.81;5032198;28;20664;-78
2023/06/26 06:10:00;;;;;;;5.78;3.80;;;;;;;22.34;100.00;98883.38;5032384;28;20208;-78
2023/06/26 06:12:27;;;;;;;13.48;7.78;;;;;;;22.38;100.00;98885.41;5032748;28;20216;-77
2023/06/26 06:14:54;;;;;;;8.73;4.40;;;;;;;22.42;100.00;98885.81;5031495;28;20224;-77
2023/06/26 06:17:23;;;;;;;5.75;3.63;;;;;;;22.53;100.00;98879.28;5031326;28;20671;-77
2023/06/26 06:19:50;;;;;;;4.15;2.92;;;;;;;22.72;100.00;98886.41;5032086;28;20200;-78
2023/06/26 06:22:17;;;;;;;8.90;3.70;;;;;;;22.89;100.00;98880.81;5033320;28;20234;-79
2023/06/26 06:24:45;;;;;;;5.22;3.15;;;;;;;23.14;100.00;98879.34;5032465;28;20283;-78
2023/06/26 06:27:13;;;;;;;5.45;3.75;;;;;;;23.41;100.00;98874.16;5032284;28;20734;-79
2023/06/26 06:29:40;;;;;;;6.75;4.07;;;;;;;23.57;100.00;98873.78;5032199;28;20215;-78
2023/06/26 06:32:07;;;;;;;5.68;3.53;;;;;;;23.87;100.00;98883.84;5031894;28;20224;-79
2023/06/26 06:34:36;;;;;;;6.68;3.90;;;;;;;23.78;100.00;98879.84;5031283;28;20326;-79
2023/06/26 06:37:03;;;;;;;5.55;3.80;;;;;;;23.95;100.00;98889.69;5031591;28;20227;-80
2023/06/26 06:39:30;;;;;;;6.38;3.67;;;;;;;23.96;100.00;98893.09;5031364;28;20200;-79
2023/06/26 06:41:57;;;;;;;7.25;3.80;;;;;;;24.01;100.00;98884.66;5031711;28;20215;-79
2023/06/26 06:44:24;;;;;;;6.00;3.53;;;;;;;24.07;100.00;98889.06;5032550;28;20196;-80
2023/06/26 06:46:51;;;;;;;7.20;3.53;;;;;;;24.18;100.00;98886.63;5031915;28;20231;-79
2023/06/26 06:49:18;;;;;;;5.60;3.35;;;;;;;23.96;100.00;98893.09;5032504;28;20207;-80
2023/06/26 06:51:46;;;;;;;5.82;3.60;;;;;;;24.11;100.00;98893.66;5031514;28;20220;-80
2023/06/26 06:54:13;;;;;;;4.75;3.53;;;;;;;24.15;100.00;98892.28;5030963;28;20236;-79
2023/06/26 06:56:40;;;;;;;6.05;3.75;;;;;;;24.30;100.00;98894.66;5030890;28;20227;-79
2023/06/26 06:59:07;;;;;;;7.47;4.40;;;;;;;24.45;100.00;98897.06;5030942;28;20211;-80
2023/06/26 07:01:33;;;;;;;5.70;3.70;;;;;;;24.84;100.00;98895.31;5031220;28;20216;-80
2023/06/26 07:04:00;;;;;;;4.78;3.53;;;;;;;24.82;100.00;98907.81;5030969;28;20208;-80
2023/06/26 07:06:27;;;;;;;6.88;3.88;;;;;;;24.93;100.00;98908.94;5031303;28;20232;-79
2023/06/26 07:08:55;;;;;;;6.95;3.88;;;;;;;24.92;100.00;98910.75;5031145;28;20204;-80
2023/06/26 07:11:22;;;;;;;5.70;3.78;;;;;;;24.86;100.00;98916.81;5030680;28;20597;-80
2023/06/26 07:13:49;;;;;;;8.13;4.05;;;;;;;24.56;100.00;98919.94;5030670;28;20615;-79
2023/06/26 07:16:16;;;;;;;6.13;4.13;;;;;;;24.27;100.00;98915.16;5031282;28;20617;-80
2023/06/26 07:18:43;;;;;;;6.55;3.80;;;;;;;24.43;100.00;98914.75;5031400;28;20200;-80
2023/06/26 07:21:10;;;;;;;7.75;4.10;;;;;;;24.54;100.00;98921.97;5030630;28;20220;-81
2023/06/26 07:23:37;;;;;;;7.10;4.00;;;;;;;24.65;100.00;98917.91;5030978;28;20208;-79
2023/06/26 07:26:05;;;;;;;5.35;3.83;;;;;;;24.65;100.00;98910.06;5030839;28;20220;-80
2023/06/26 07:28:32;;;;;;;5.53;3.78;;;;;;;24.58;100.00;98915.34;5031087;28;20204;-80
2023/06/26 07:30:59;;;;;;;5.95;3.83;;;;;;;24.54;100.00;98911.50;5030684;28;20231;-80
2023/06/26 07:33:26;;;;;;;9.07;4.30;;;;;;;24.45;100.00;98917.16;5030508;28;20658;-80
2023/06/26 07:35:53;;;;;;;8.88;4.30;;;;;;;24.56;100.00;98927.78;5030333;28;20231;-80
2023/06/26 07:38:20;;;;;;;6.32;4.07;;;;;;;24.43;100.00;98922.59;5030491;28;20196;-80
2023/06/26 07:40:47;;;;;;;5.63;4.07;;;;;;;24.44;100.00;98918.97;5030247;28;20192;-80
2023/06/26 07:43:15;;;;;;;7.20;4.63;;;;;;;24.39;100.00;98913.53;5030660;28;20196;-80
2023/06/26 07:45:42;;;;;;;6.35;4.45;;;;;;;24.76;100.00;98913.88;5030768;28;20220;-80
2023/06/26 07:48:09;;;;;;;5.57;3.75;;;;;;;24.94;100.00;98919.22;5031013;28;20287;-80
2023/06/26 07:50:36;;;;;;;6.70;4.60;;;;;;;25.34;100.00;98918.22;5031040;28;20222;-80
2023/06/26 07:53:05;;;;;;;7.82;4.20;;;;;;;25.36;100.00;98919.63;5030370;28;20198;-80
2023/06/26 07:55:32;;;;;;;7.18;4.60;;;;;;;25.38;100.00;98915.00;5030465;28;20228;-80
2023/06/26 07:57:59;;;;;;;8.75;4.75;;;;;;;25.40;100.00;98923.44;5030427;28;20313;-80
2023/06/26 08:00:27;;;;;;;7.03;4.25;;;;;;;25.58;100.00;98924.53;5030438;28;20674;-80
2023/06/26 08:02:54;;;;;;;7.68;4.80;;;;;;;25.14;100.00;98931.44;5030224;28;20299;-80
2023/06/26 08:05:21;;;;;;;6.82;4.38;;;;;;;25.35;100.00;98927.69;5030691;28;20200;-80
2023/06/26 08:07:48;;;;;;;7.57;4.30;;;;;;;25.53;100.00;98931.19;5034047;28;20216;-80
2023/06/26 08:10:15;;;;;;;7.82;4.90;;;;;;;25.95;100.00;98934.16;5034380;28;20208;-80
2023/06/26 08:12:42;;;;;;;8.55;4.22;;;;;;;25.65;100.00;98927.91;5034297;28;20223;-80
2023/06/26 08:15:10;;;;;;;6.75;4.57;;;;;;;25.88;100.00;98933.38;5033895;28;20240;-80
2023/06/26 08:17:39;;;;;;;8.15;4.45;;;;;;;25.66;99.67;98932.94;5035369;28;20223;-81
2023/06/26 08:20:08;;;;;;;6.45;4.15;;;;;;;25.79;100.00;98928.59;5034936;28;20216;-80
2023/06/26 08:22:35;;;;;;;10.50;4.13;;;;;;;25.91;100.00;98938.19;5034537;28;20227;-80
2023/06/26 08:25:03;;;;;;;6.35;4.15;;;;;;;25.67;100.00;98925.88;5034432;28;20212;-80
2023/06/26 08:27:29;;;;;;;5.97;4.30;;;;;;;25.66;100.00;98929.53;5034056;28;20247;-80
2023/06/26 08:29:56;;;;;;;6.80;4.30;;;;;;;25.94;100.00;98921.25;5033961;28;20208;-80
2023/06/26 08:32:23;;;;;;;6.38;3.95;;;;;;;26.07;100.00;98930.84;5033603;28;20227;-80
2023/06/26 08:34:51;;;;;;;7.88;4.38;;;;;;;25.78;100.00;98927.00;5033424;28;20267;-80
2023/06/26 08:37:18;;;;;;;6.50;4.15;;;;;;;25.86;100.00;98924.97;5033414;28;20227;-80
2023/06/26 09:07:12;;;;;;;5.03;3.78;;;;;;;27.10;92.28;98925.69;5033227;28;20230;-80
2023/06/26 09:09:39;;;;;;;4.97;3.25;;;;;;;26.84;90.28;98932.06;5032936;28;20672;-80
2023/06/26 09:12:06;;;;;;;7.38;3.78;;;;;;;26.71;95.42;98926.19;5032771;28;20228;-80
2023/06/26 09:14:33;;;;;;;6.35;4.10;;;;;;;26.51;93.96;98926.41;5033216;28;20610;-80
2023/06/26 09:17:00;;;;;;;5.15;3.90;;;;;;;26.49;96.44;98923.16;5033971;28;20722;-80
2023/06/26 09:19:27;;;;;;;5.38;3.83;;;;;;;26.36;95.25;98919.66;5032730;28;20208;-80
2023/06/26 09:21:55;;;;;;;6.38;4.03;;;;;;;25.90;97.97;98918.28;5033217;28;20224;-80
2023/06/26 09:24:24;;;;;;;5.32;3.80;;;;;;;25.52;100.00;98913.88;5032676;28;20215;-80
2023/06/26 09:26:52;;;;;;;8.80;3.83;;;;;;;25.36;100.00;98908.34;5033052;28;20723;-80
2023/06/26 09:29:20;;;;;;;6.68;3.92;;;;;;;25.49;100.00;98903.06;5032507;28;20215;-80
2023/06/26 09:31:47;;;;;;;6.72;4.00;;;;;;;25.55;100.00;98907.44;5032977;28;20617;-79
2023/06/26 09:34:14;;;;;;;5.13;3.85;;;;;;;25.45;100.00;98910.53;5032661;28;20240;-80
2023/06/26 09:36:46;;;;;;;5.43;3.67;;;;;;;25.49;100.00;98914.31;5032811;28;20219;-80
2023/06/26 09:39:14;;;;;;;5.72;3.88;;;;;;;25.31;100.00;98911.63;5032275;28;20200;-80
2023/06/26 09:41:44;;;;;;;6.45;4.10;;;;;;;25.35;100.00;98901.53;5032561;28;20223;-80
2023/06/26 09:44:13;;;;;;;5.68;3.90;;;;;;;25.27;100.00;98915.66;5032453;28;20201;-80
2023/06/26 09:46:40;;;;;;;5.93;3.47;;;;;;;25.22;100.00;98907.63;5033092;28;20225;-80
2023/06/26 09:49:08;;;;;;;6.38;3.90;;;;;;;25.26;100.00;98903.59;5032585;28;20639;-80
2023/06/26 09:51:36;;;;;;;6.38;4.07;;;;;;;25.34;100.00;98905.97;5032886;28;20228;-80
2023/06/26 09:54:04;;;;;;;5.30;4.03;;;;;;;25.29;100.00;98903.16;5032967;28;20204;-79
2023/06/26 09:56:32;;;;;;;6.82;3.80;;;;;;;25.15;100.00;98899.03;5032107;28;20220;-79
2023/06/26 09:59:02;;;;;;;6.00;4.07;;;;;;;25.13;100.00;98903.63;5032400;28;20200;-79
2023/06/26 10:01:29;;;;;;;6.72;4.13;;;;;;;25.11;100.00;98910.91;5032048;28;20669;-79
2023/06/26 10:03:57;;;;;;;5.63;4.10;;;;;;;25.15;100.00;98899.03;5032045;28;20247;-79
2023/06/26 10:06:29;;;;;;;5.32;3.92;;;;;;;25.12;100.00;98907.25;5031994;28;20232;-79
2023/06/26 10:08:59;;;;;;;6.80;4.25;;;;;;;24.98;100.00;98907.31;5032134;28;20212;-80
2023/06/26 10:11:31;;;;;;;4.60;3.63;;;;;;;25.12;100.00;98902.03;5031807;28;20228;-80
2023/06/26 10:14:00;;;;;;;7.10;3.97;;;;;;;25.36;100.00;98893.44;5032324;28;20204;-79
2023/06/26 10:16:29;;;;;;;6.70;4.07;;;;;;;25.73;100.00;98893.59;5031003;28;20224;-80
2023/06/26 10:19:02;;;;;;;6.13;3.75;;;;;;;25.97;100.00;98895.44;5031936;28;20195;-80
2023/06/26 10:21:32;;;;;;;4.97;3.90;;;;;;;26.13;100.00;98893.28;5031788;28;20746;-80
2023/06/26 10:24:00;;;;;;;6.25;3.88;;;;;;;26.08;100.00;98890.50;5031972;28;20208;-80
2023/06/26 10:26:29;;;;;;;7.60;4.18;;;;;;;26.26;100.00;98893.13;5031773;28;20228;-80
2023/06/26 10:28:58;;;;;;;5.18;3.80;;;;;;;26.33;97.20;98888.66;5031279;28;20203;-80
2023/06/26 10:31:29;;;;;;;6.90;3.97;;;;;;;26.30;100.00;98889.09;5031400;28;20228;-80
2023/06/26 10:33:56;;;;;;;6.32;3.78;;;;;;;26.53;100.00;98882.41;5031565;28;20203;-80
2023/06/26 10:36:29;;;;;;;4.32;2.97;;;;;;;26.42;93.67;98892.56;5031156;28;20250;-80
2023/06/26 10:38:57;;;;;;;4.47;2.80;;;;;;;26.61;94.19;98889.97;5031438;28;20204;-80
2023/06/26 10:41:25;;;;;;;4.60;3.70;;;;;;;26.72;91.81;98888.44;5031307;28;20227;-80
2023/06/26 10:43:53;;;;;;;4.97;3.20;;;;;;;26.85;93.73;98886.47;5031308;28;20727;-80
2023/06/26 10:46:21;;;;;;;6.10;3.95;;;;;;;27.02;93.40;98885.81;5031545;28;20290;-80
2023/06/26 10:49:14;;;;;;;5.55;3.35;;;;;;;27.09;95.13;98876.06;5031414;28;20204;-80
2023/06/26 10:51:48;;;;;;;4.15;3.00;;;;;;;27.41;86.28;98883.72;5031453;28;20223;-80
2023/06/26 10:54:16;;;;;;;5.85;3.50;;;;;;;27.58;87.32;98884.66;5031683;28;20206;-80
2023/06/26 10:56:44;;;;;;;4.63;3.35;;;;;;;27.88;87.20;98878.53;5031082;28;20220;-80
2023/06/26 10:59:19;;;;;;;5.10;3.28;;;;;;;28.24;92.12;98871.41;5030814;28;20672;-80
2023/06/26 11:01:47;;;;;;;4.43;2.85;;;;;;;28.57;93.10;98871.63;5031031;28;20224;-80
2023/06/26 11:04:16;;;;;;;5.75;3.22;;;;;;;28.58;81.98;98882.94;5030694;28;20201;-80
2023/06/26 11:06:47;;;;;;;4.15;3.35;;;;;;;28.94;83.29;98883.59;5030534;28;20723;-80
2023/06/26 11:09:16;;;;;;;4.38;3.30;;;;;;;29.07;75.91;98886.78;5031104;28;20237;-80
2023/06/26 11:12:05;;;;;;;4.75;3.10;;;;;;;29.27;79.39;98882.91;5032219;28;20622;-81
2023/06/26 11:14:33;;;;;;;4.93;3.45;;;;;;;29.37;77.77;98877.00;5030331;28;20200;-80
2023/06/26 11:17:03;;;;;;;4.70;3.10;;;;;;;29.52;78.68;98883.31;5030770;28;20707;-80
2023/06/26 11:19:31;;;;;;;3.75;2.90;;;;;;;29.48;75.93;98871.66;5030769;28;20200;-81
2023/06/26 11:22:06;;;;;;;4.25;2.65;;;;;;;29.56;73.74;98881.81;5030615;28;20220;-81
2023/06/26 11:24:33;;;;;;;5.68;3.13;;;;;;;29.44;73.14;98870.56;5030715;28;20200;-81
2023/06/26 11:27:06;;;;;;;5.03;2.95;;;;;;;29.37;72.74;98864.63;5030447;28;20227;-80
2023/06/26 11:29:34;;;;;;;6.93;3.10;;;;;;;29.36;78.97;98864.91;5030753;28;20210;-80
2023/06/26 11:32:05;;;;;;;5.65;3.13;;;;;;;29.34;76.41;98881.72;5029428;28;20226;-80
2023/06/26 11:34:34;;;;;;;4.32;3.28;;;;;;;29.14;74.10;98880.56;5030345;28;20691;-80
2023/06/26 11:37:02;;;;;;;4.70;2.95;;;;;;;29.08;76.66;98877.06;5030241;28;20224;-80
2023/06/26 11:39:29;;;;;;;5.03;3.00;;;;;;;29.04;73.43;98881.19;5030456;28;20239;-80
2023/06/26 11:41:57;;;;;;;3.42;2.60;;;;;;;28.97;76.89;98880.50;5030497;28;20223;-80
2023/06/26 11:44:24;;;;;;;4.07;3.03;;;;;;;28.87;78.75;98874.03;5030540;28;20211;-81
2023/06/26 11:46:55;;;;;;;3.92;2.83;;;;;;;28.78;79.32;98872.00;5029876;28;20616;-81
2023/06/26 11:49:25;;;;;;;7.45;3.00;;;;;;;28.58;78.73;98869.78;5030072;28;20204;-81
2023/06/26 11:51:55;;;;;;;4.30;3.20;;;;;;;28.43;78.73;98867.66;5029850;28;20578;-81
2023/06/26 11:54:27;;;;;;;5.07;2.80;;;;;;;28.40;82.70;98868.09;5030517;28;20207;-80
2023/06/26 11:56:58;;;;;;;3.67;2.78;;;;;;;28.50;82.45;98875.41;5030175;28;20242;-80